Time;durP1;ratioP1;P1;durP2;ratioP2;P2;SDS_P1;SDS_P2;PMS_P1;PMS_P2;Temp;Humidity;BMP_temperature;BMP_pressure;BME280_temperature;BME280_humidity;BME280_pressure;Samples;Min_cycle;Max_cycle;Signal;HPM_P1;HPM_P2
2021/06/13 00:01:08;;;;;;;4.32;3.90;;;19.30;62.80;;;18.46;59.95;96581.03;4958011;28;20113;-67
2021/06/13 00:03:34;;;;;;;5.95;4.10;;;19.40;62.50;;;18.43;60.08;96587.63;4984741;28;20490;-66
2021/06/13 00:06:00;;;;;;;6.40;4.03;;;19.30;62.70;;;18.37;60.32;96585.88;4957814;28;20049;-67
2021/06/13 00:08:26;;;;;;;4.60;4.07;;;19.10;63.20;;;18.34;60.27;96583.66;4961884;28;20704;-67
2021/06/13 00:10:52;;;;;;;5.97;3.97;;;19.30;62.90;;;18.33;60.08;96590.84;4955924;28;20522;-67
2021/06/13 00:13:18;;;;;;;6.30;4.65;;;19.30;62.90;;;18.30;60.62;96588.59;4966561;28;20084;-67
2021/06/13 00:15:43;;;;;;;5.72;4.28;;;19.20;63.00;;;18.27;60.75;96597.03;4992838;28;20505;-66
2021/06/13 00:18:09;;;;;;;5.22;3.88;;;19.30;63.00;;;18.27;60.92;96598.88;4976117;28;20042;-68
2021/06/13 00:20:36;;;;;;;5.45;4.13;;;19.20;63.20;;;18.26;60.57;96598.06;5002645;28;20049;-68
2021/06/13 00:23:01;;;;;;;5.75;3.95;;;19.30;63.30;;;18.22;60.58;96594.25;4962420;28;20034;-68
2021/06/13 00:25:27;;;;;;;4.70;3.80;;;19.10;63.50;;;18.22;61.28;96590.78;4999594;28;20551;-68
2021/06/13 00:27:53;;;;;;;5.38;4.47;;;19.20;63.40;;;18.22;60.83;96593.44;4990812;28;20126;-67
2021/06/13 00:30:19;;;;;;;7.70;4.57;;;19.20;63.60;;;18.19;61.13;96586.72;4959313;28;20080;-67
2021/06/13 00:32:45;;;;;;;6.63;4.30;;;19.20;63.40;;;18.14;61.22;96594.56;4989862;28;20031;-68
2021/06/13 00:35:12;;;;;;;5.80;4.70;;;19.10;63.80;;;18.14;61.34;96593.75;4956340;28;20372;-68
2021/06/13 00:37:38;;;;;;;5.35;4.30;;;19.10;63.90;;;18.11;61.54;96604.84;4970510;28;20106;-67
2021/06/13 00:40:05;;;;;;;5.28;4.53;;;19.00;64.30;;;18.07;61.62;96599.13;4986779;28;20121;-68
2021/06/13 00:42:31;;;;;;;6.07;4.60;;;18.90;64.60;;;18.05;61.50;96604.69;4956086;28;20031;-65
2021/06/13 00:44:56;;;;;;;7.00;4.28;;;19.00;64.40;;;18.03;61.71;96603.28;4988059;28;20039;-66
2021/06/13 00:47:22;;;;;;;8.13;5.07;;;18.90;64.40;;;18.02;62.21;96599.00;4967806;28;20284;-67
2021/06/13 00:49:48;;;;;;;5.85;4.53;;;18.90;64.30;;;18.01;62.10;96600.03;4990009;28;20117;-68
2021/06/13 00:52:14;;;;;;;7.07;5.00;;;19.00;64.20;;;18.02;62.27;96607.00;4971657;28;20070;-67
2021/06/13 00:54:39;;;;;;;6.07;5.05;;;19.00;64.20;;;18.03;62.11;96603.28;4960452;28;20110;-68
2021/06/13 00:57:06;;;;;;;8.15;5.70;;;19.00;63.90;;;18.03;61.43;96608.63;4974905;28;20035;-66
2021/06/13 00:59:31;;;;;;;6.53;5.28;;;19.00;63.70;;;18.03;61.86;96608.63;4987972;28;20038;-67
2021/06/13 01:01:57;;;;;;;6.32;5.05;;;18.90;63.80;;;18.02;61.55;96607.00;4989478;28;20072;-66
2021/06/13 01:04:23;;;;;;;6.63;5.47;;;18.90;63.40;;;18.01;61.33;96608.03;4974552;28;20065;-67
2021/06/13 01:07:04;;;;;;;8.85;5.72;;;18.90;63.20;;;18.00;61.99;96601.06;5003240;28;20437;-65
2021/06/13 01:09:39;;;;;;;8.57;5.55;;;18.90;63.30;;;18.01;61.42;96605.38;4979914;28;20081;-66
2021/06/13 01:12:31;;;;;;;7.50;5.15;;;18.90;63.30;;;18.00;62.21;96601.06;4987782;28;20505;-66
2021/06/13 01:15:12;;;;;;;7.32;5.57;;;18.90;62.90;;;18.01;61.62;96606.19;4983880;28;20890;-66
2021/06/13 01:18:07;;;;;;;7.32;5.30;;;19.00;62.70;;;18.01;61.45;96602.69;4973254;28;20034;-66
2021/06/13 01:21:11;;;;;;;6.85;5.43;;;18.90;62.50;;;17.97;61.01;96599.69;4974209;28;20034;-66
2021/06/13 01:24:03;;;;;;;5.78;4.75;;;18.90;62.30;;;17.98;60.93;96608.47;4920308;29;20066;-67
2021/06/13 01:27:07;;;;;;;8.30;5.25;;;18.80;62.40;;;17.96;61.39;96607.88;4968867;28;20037;-66
2021/06/13 01:29:38;;;;;;;6.72;5.70;;;18.90;62.60;;;17.96;61.10;96606.03;4980981;28;20049;-67
2021/06/13 01:32:18;;;;;;;6.88;5.40;;;18.90;62.10;;;17.95;61.44;96601.75;4955988;28;20042;-68
2021/06/13 01:34:50;;;;;;;7.30;4.95;;;18.90;62.10;;;17.96;60.55;96598.06;4986604;28;20040;-68
2021/06/13 01:37:18;;;;;;;6.85;4.93;;;18.90;61.60;;;17.96;60.63;96597.25;4984031;28;20054;-65
2021/06/13 01:39:46;;;;;;;7.97;5.22;;;19.00;61.40;;;17.92;60.66;96591.56;4951252;28;20054;-66
2021/06/13 01:42:13;;;;;;;7.57;5.10;;;18.90;61.00;;;17.91;60.15;96584.59;4966050;28;20161;-68
2021/06/13 01:44:43;;;;;;;7.05;4.95;;;19.00;61.00;;;17.95;60.10;96596.44;4986512;28;20026;-66
2021/06/13 01:47:09;;;;;;;10.20;5.22;;;18.90;61.10;;;17.97;59.69;96598.88;4974515;28;20490;-65
2021/06/13 01:49:35;;;;;;;8.15;5.00;;;19.00;61.30;;;17.97;59.88;96597.03;4969798;28;20105;-65
2021/06/13 01:52:01;;;;;;;7.65;5.65;;;19.10;61.10;;;17.94;59.96;96597.47;4988844;28;20035;-65
2021/06/13 01:54:27;;;;;;;8.63;5.53;;;18.90;61.50;;;17.95;60.24;96592.97;4986549;28;20053;-65
2021/06/13 01:56:53;;;;;;;6.80;5.03;;;19.00;61.20;;;17.98;59.96;96595.16;4972518;28;20071;-65
2021/06/13 01:59:19;;;;;;;7.10;4.90;;;19.10;61.40;;;17.99;60.45;96597.59;4986634;28;20045;-65
2021/06/13 02:01:45;;;;;;;8.93;5.80;;;19.10;61.40;;;18.00;60.68;96596.56;4985535;28;20180;-65
2021/06/13 02:04:12;;;;;;;6.68;5.47;;;19.10;61.40;;;18.00;59.85;96593.09;4968582;28;20035;-65
2021/06/13 02:06:43;;;;;;;7.25;5.43;;;19.10;61.20;;;18.02;60.27;96607.00;4985411;28;20129;-65
2021/06/13 02:09:08;;;;;;;8.65;5.68;;;19.10;61.60;;;17.99;60.29;96599.44;4984433;28;20096;-65
2021/06/13 02:11:34;;;;;;;8.15;5.53;;;19.00;61.60;;;17.97;59.97;96597.03;4979252;28;20447;-65
2021/06/13 02:14:01;;;;;;;7.85;5.88;;;19.00;61.50;;;17.93;60.92;96595.84;4988614;28;20423;-65
2021/06/13 02:16:27;;;;;;;7.60;5.88;;;19.00;61.60;;;17.88;60.59;96584.22;4984840;28;20038;-64
2021/06/13 02:18:55;;;;;;;10.73;5.40;;;19.00;61.70;;;17.93;60.80;96595.03;4990224;28;20499;-65
2021/06/13 02:21:21;;;;;;;8.18;5.32;;;19.00;61.50;;;17.91;60.69;96599.75;4971701;28;20036;-65
2021/06/13 02:23:47;;;;;;;8.38;5.25;;;18.90;61.70;;;17.89;60.83;96591.19;4980481;28;20479;-65
2021/06/13 02:26:13;;;;;;;7.38;5.13;;;19.00;61.70;;;17.89;60.69;96601.84;4986949;28;20125;-65
2021/06/13 02:28:42;;;;;;;9.05;5.57;;;19.00;61.50;;;17.85;60.56;96595.31;5003288;28;20045;-65
2021/06/13 02:31:07;;;;;;;12.15;5.82;;;19.00;61.50;;;17.83;60.50;96602.69;4970090;28;20114;-65
2021/06/13 02:33:34;;;;;;;9.40;5.93;;;18.90;61.70;;;17.77;60.57;96608.94;4973260;28;20050;-65
2021/06/13 02:36:00;;;;;;;8.98;6.07;;;18.80;61.50;;;17.75;60.49;96609.97;4959474;28;20034;-65
2021/06/13 02:38:26;;;;;;;7.15;5.47;;;18.80;61.60;;;17.73;60.05;96614.69;4997486;28;20034;-65
2021/06/13 02:40:53;;;;;;;7.68;5.50;;;18.70;61.80;;;17.71;60.96;96616.75;4971392;28;20049;-65
2021/06/13 02:43:19;;;;;;;7.90;5.82;;;18.70;61.80;;;17.69;60.86;96618.84;4984223;28;20038;-65
2021/06/13 02:45:45;;;;;;;8.75;5.68;;;18.60;61.90;;;17.65;61.05;96616.78;4997801;28;20128;-65
2021/06/13 02:48:10;;;;;;;8.63;6.40;;;18.70;61.80;;;17.59;60.77;96609.69;5006178;28;20114;-65
2021/06/13 02:50:36;;;;;;;8.80;5.90;;;18.60;62.30;;;17.55;60.86;96619.16;5002903;28;20058;-66
2021/06/13 02:53:32;;;;;;;7.40;5.13;;;18.60;62.50;;;17.52;61.77;96625.72;4986210;28;20030;-65
2021/06/13 02:56:42;;;;;;;9.63;5.90;;;18.60;62.60;;;17.47;61.64;96630.91;4980640;28;20122;-65
2021/06/13 02:59:27;;;;;;;7.57;5.47;;;18.50;62.80;;;17.41;61.87;96632.56;4978742;28;20038;-65
2021/06/13 03:01:53;;;;;;;7.80;6.30;;;18.50;62.80;;;17.37;61.10;96636.69;4997630;28;20049;-65
2021/06/13 03:04:19;;;;;;;7.40;5.75;;;18.50;63.10;;;17.33;61.15;96640.00;4986365;28;20070;-65
2021/06/13 03:06:51;;;;;;;8.27;5.85;;;18.50;63.10;;;17.31;62.62;96642.06;4980452;28;20073;-65
2021/06/13 03:09:17;;;;;;;7.93;5.95;;;18.50;63.10;;;17.26;61.86;96645.41;4965770;28;20050;-65
2021/06/13 03:11:42;;;;;;;7.43;6.20;;;18.40;63.40;;;17.22;61.69;96641.53;4975870;28;20069;-65
2021/06/13 03:14:08;;;;;;;9.40;6.32;;;18.40;63.50;;;17.21;61.38;96658.53;4988121;28;20073;-65
2021/06/13 03:16:34;;;;;;;7.93;6.07;;;18.40;63.40;;;17.19;62.51;96657.09;4955605;28;20038;-65
2021/06/13 03:18:59;;;;;;;8.98;6.50;;;18.30;63.50;;;17.17;61.88;96661.81;4941250;28;20112;-65
2021/06/13 03:21:25;;;;;;;7.90;5.95;;;18.30;63.70;;;17.14;62.74;96658.56;4984785;28;20027;-65
2021/06/13 03:23:51;;;;;;;9.13;6.00;;;18.40;63.80;;;17.11;62.50;96661.66;5002729;28;20066;-65
2021/06/13 03:26:17;;;;;;;8.35;6.03;;;18.30;63.90;;;17.11;62.48;96661.66;4979559;28;20500;-65
2021/06/13 03:28:44;;;;;;;13.50;6.20;;;18.40;64.10;;;17.13;62.43;96664.91;4955668;28;20584;-65
2021/06/13 03:31:10;;;;;;;9.70;6.72;;;18.40;64.10;;;17.13;62.31;96669.41;4984769;28;20037;-65
2021/06/13 03:33:36;;;;;;;9.98;6.00;;;18.30;64.00;;;17.11;62.77;96666.16;4968462;28;20134;-65
2021/06/13 03:36:02;;;;;;;8.88;6.10;;;18.20;64.00;;;17.06;62.85;96655.38;4973709;28;20498;-65
2021/06/13 03:38:28;;;;;;;9.40;6.43;;;18.20;64.20;;;17.02;63.29;96657.66;4968682;28;20045;-65
2021/06/13 03:40:55;;;;;;;8.45;6.70;;;18.20;64.60;;;17.02;62.60;96664.81;4969488;28;20042;-65
2021/06/13 03:43:21;;;;;;;7.55;6.75;;;18.10;64.60;;;17.00;62.92;96670.34;4974976;28;20031;-65
2021/06/13 03:45:48;;;;;;;8.80;6.55;;;18.20;64.60;;;16.99;63.60;96670.56;4970846;28;21397;-65
2021/06/13 03:48:13;;;;;;;7.20;5.68;;;18.20;64.40;;;16.98;62.99;96683.03;4981620;28;20058;-65
2021/06/13 03:50:42;;;;;;;6.80;6.10;;;18.20;64.70;;;16.97;63.37;96676.06;4971588;28;20031;-66
2021/06/13 03:53:07;;;;;;;8.35;6.32;;;18.20;64.70;;;16.92;63.32;96670.56;4981392;28;20039;-65
2021/06/13 03:55:33;;;;;;;10.63;6.72;;;18.10;64.60;;;16.90;62.93;96677.97;4971059;28;20054;-66
2021/06/13 03:57:59;;;;;;;8.50;6.10;;;18.10;64.80;;;16.89;63.77;96686.97;4988625;28;20054;-65
2021/06/13 04:00:26;;;;;;;7.88;6.38;;;18.10;64.60;;;16.89;63.21;96678.97;4988892;28;20031;-66
2021/06/13 04:02:51;;;;;;;10.18;7.10;;;18.10;64.90;;;16.83;63.89;96677.19;4969552;28;20045;-65
2021/06/13 04:05:19;;;;;;;8.55;6.50;;;18.00;65.00;;;16.80;64.30;96688.25;4985828;28;20525;-65
2021/06/13 04:07:45;;;;;;;13.38;6.70;;;18.00;65.10;;;16.76;63.89;96689.72;4956283;28;20493;-66
2021/06/13 04:10:12;;;;;;;9.20;6.53;;;17.90;65.40;;;16.72;64.20;96686.63;4986780;28;20038;-65
2021/06/13 04:12:38;;;;;;;11.98;6.65;;;17.90;65.50;;;16.68;63.81;96681.97;4977574;28;20233;-65
2021/06/13 04:15:07;;;;;;;9.20;6.80;;;17.90;65.70;;;16.66;63.70;96689.31;4977689;28;20168;-66
2021/06/13 04:17:33;;;;;;;7.18;6.30;;;17.90;65.70;;;16.65;63.97;96696.47;4969996;28;20058;-66
2021/06/13 04:19:58;;;;;;;13.57;6.20;;;18.00;65.80;;;16.64;63.65;96691.38;4969003;28;20125;-66
2021/06/13 04:22:24;;;;;;;7.45;5.95;;;17.90;65.70;;;16.61;64.65;96689.94;4976444;28;20051;-65
2021/06/13 04:24:52;;;;;;;8.15;6.38;;;17.80;65.40;;;16.61;64.53;96699.75;4987085;28;20038;-65
2021/06/13 04:27:20;;;;;;;13.48;6.88;;;17.70;65.40;;;16.56;63.77;96694.28;4976282;28;20041;-66
2021/06/13 04:29:46;;;;;;;19.98;17.27;;;17.70;65.60;;;16.49;63.88;96692.44;4964992;28;20038;-65
2021/06/13 04:32:12;;;;;;;9.43;7.55;;;17.70;66.60;;;16.51;64.25;96693.03;4976545;28;20059;-66
2021/06/13 04:34:38;;;;;;;9.25;6.47;;;17.70;65.60;;;16.48;63.77;96701.44;4969353;28;20094;-66
2021/06/13 04:37:04;;;;;;;10.55;6.13;;;17.70;65.40;;;16.47;63.96;96701.66;4979863;28;20046;-65
2021/06/13 04:39:30;;;;;;;9.77;6.18;;;17.70;65.30;;;16.47;65.03;96704.31;4972743;28;20498;-66
2021/06/13 04:41:55;;;;;;;14.55;8.32;;;17.70;65.30;;;16.46;64.64;96706.16;4964861;28;20128;-66
2021/06/13 04:44:21;;;;;;;9.38;6.72;;;17.80;65.10;;;16.48;63.76;96708.59;4972011;28;20049;-66
2021/06/13 04:46:47;;;;;;;18.67;13.65;;;17.80;64.60;;;16.50;64.02;96710.00;4986735;28;20051;-66
2021/06/13 04:49:13;;;;;;;8.80;6.75;;;17.90;65.10;;;16.56;63.83;96718.19;4989461;28;20039;-66
2021/06/13 04:51:39;;;;;;;8.45;6.30;;;17.90;64.00;;;16.58;63.96;96721.44;4970280;28;20066;-66
2021/06/13 04:54:06;;;;;;;8.82;5.30;;;18.00;64.10;;;16.60;63.98;96719.38;4961291;28;20042;-66
2021/06/13 04:56:44;;;;;;;7.50;5.00;;;17.90;63.80;;;16.62;64.08;96725.28;4982627;28;20039;-66
2021/06/13 04:59:10;;;;;;;9.90;5.22;;;17.90;63.60;;;16.63;62.62;96719.78;4979282;28;20045;-67
2021/06/13 05:01:38;;;;;;;7.63;5.30;;;17.90;63.30;;;16.64;63.46;96720.59;5006669;28;20034;-66
2021/06/13 05:04:04;;;;;;;11.27;6.47;;;17.80;63.10;;;16.63;63.36;96713.66;4999802;28;20081;-66
2021/06/13 05:06:30;;;;;;;7.60;5.00;;;17.80;63.20;;;16.63;62.46;96722.44;4959356;28;20039;-66
2021/06/13 05:08:56;;;;;;;9.27;5.43;;;17.90;62.70;;;16.62;62.65;96723.44;4987414;28;20035;-66
2021/06/13 05:11:21;;;;;;;12.93;5.20;;;17.90;62.90;;;16.63;62.85;96722.44;4972595;28;20051;-65
2021/06/13 05:13:47;;;;;;;10.48;5.68;;;18.00;62.70;;;16.66;61.96;96735.31;4986279;28;20058;-66
2021/06/13 05:16:13;;;;;;;8.02;5.03;;;18.00;62.00;;;16.69;61.96;96734.06;4971555;28;20034;-65
2021/06/13 05:18:38;;;;;;;8.43;4.65;;;18.10;61.90;;;16.72;61.64;96736.31;4968467;28;20077;-65
2021/06/13 05:21:04;;;;;;;10.55;5.90;;;18.10;61.80;;;16.75;61.96;96743.88;4991186;28;20035;-65
2021/06/13 05:23:30;;;;;;;8.38;5.05;;;18.20;61.60;;;16.82;62.09;96736.69;4969064;28;20036;-65
2021/06/13 05:25:57;;;;;;;7.05;3.85;;;18.20;61.40;;;16.84;62.25;96731.97;5013397;28;20608;-65
2021/06/13 05:28:23;;;;;;;6.15;3.92;;;18.30;60.00;;;16.87;60.87;96741.34;4982372;28;20435;-65
2021/06/13 05:30:49;;;;;;;8.02;4.75;;;18.20;59.90;;;16.95;61.49;96749.88;4989492;28;20031;-67
2021/06/13 05:33:15;;;;;;;6.07;4.38;;;18.40;60.20;;;17.00;61.05;96742.09;4963619;28;20033;-66
2021/06/13 05:35:41;;;;;;;5.88;3.55;;;18.60;59.10;;;17.08;60.70;96755.13;4959053;28;20066;-66
2021/06/13 05:38:07;;;;;;;9.90;4.15;;;18.60;58.90;;;17.15;61.12;96755.91;4969952;28;20038;-69
2021/06/13 05:40:33;;;;;;;5.63;3.60;;;18.70;58.80;;;17.20;60.28;96755.28;4955760;28;20035;-66
2021/06/13 05:42:58;;;;;;;9.90;5.10;;;18.70;58.70;;;17.26;60.85;96751.75;4989713;28;20121;-66
2021/06/13 05:45:26;;;;;;;10.40;6.13;;;19.00;58.20;;;17.35;60.08;96755.75;4983409;28;20709;-65
2021/06/13 05:47:52;;;;;;;9.32;5.07;;;19.20;57.40;;;17.43;59.92;96760.03;4956864;28;20075;-66
2021/06/13 05:50:18;;;;;;;8.13;3.88;;;19.50;57.20;;;17.53;59.65;96763.00;4978084;28;20042;-66
2021/06/13 05:52:44;;;;;;;10.55;7.97;;;19.50;55.80;;;17.61;59.80;96770.72;4998834;28;20038;-66
2021/06/13 05:55:11;;;;;;;10.13;4.15;;;19.60;56.10;;;17.66;59.73;96762.91;4959850;28;20118;-66
2021/06/13 05:57:37;;;;;;;5.82;3.28;;;19.60;55.30;;;17.74;59.22;96762.66;4992600;28;20034;-66
2021/06/13 06:00:17;;;;;;;4.65;2.92;;;19.70;55.10;;;17.82;58.86;96764.22;4971251;28;20045;-66
2021/06/13 06:02:43;;;;;;;8.48;3.55;;;19.90;54.60;;;17.92;59.27;96769.06;4988114;28;20038;-66
2021/06/13 06:05:10;;;;;;;8.32;3.38;;;19.90;54.20;;;18.00;58.64;96774.09;4970891;28;20053;-66
2021/06/13 06:07:36;;;;;;;10.13;3.30;;;20.00;54.50;;;18.11;58.29;96784.06;4941390;28;20086;-66
2021/06/13 06:10:02;;;;;;;5.43;3.15;;;20.20;53.50;;;18.21;58.57;96786.19;4969112;28;20507;-67
2021/06/13 06:12:28;;;;;;;4.90;3.30;;;20.40;53.40;;;18.29;57.28;96784.06;4982896;28;20113;-66
2021/06/13 06:14:54;;;;;;;6.03;3.25;;;20.30;52.30;;;18.36;57.21;96782.16;4970772;28;20062;-66
2021/06/13 06:17:19;;;;;;;6.43;2.55;;;20.40;52.50;;;18.43;57.30;96782.06;4984625;28;20034;-66
2021/06/13 06:19:45;;;;;;;8.60;3.80;;;20.50;52.10;;;18.49;56.48;96785.69;4973124;28;20034;-66
2021/06/13 06:22:11;;;;;;;5.38;3.17;;;20.60;50.50;;;18.57;56.70;96780.09;4977233;28;20042;-67
2021/06/13 06:24:37;;;;;;;6.35;3.03;;;20.70;51.00;;;18.63;55.78;96784.56;4982541;28;21407;-66
2021/06/13 06:27:03;;;;;;;6.38;3.20;;;20.70;51.10;;;18.75;55.91;96788.09;4954380;28;20049;-66
2021/06/13 06:29:29;;;;;;;7.90;3.15;;;20.90;50.40;;;18.85;55.62;96788.38;4980999;28;20045;-66
2021/06/13 06:31:55;;;;;;;4.93;2.47;;;21.10;50.40;;;18.95;56.00;96785.19;4979141;28;20042;-67
2021/06/13 06:34:20;;;;;;;7.68;3.13;;;21.50;49.20;;;19.06;55.22;96784.44;4949871;28;20031;-66
2021/06/13 06:36:46;;;;;;;6.93;2.70;;;21.60;48.50;;;19.21;54.84;96784.00;5005128;28;20042;-67
2021/06/13 06:39:13;;;;;;;7.15;2.45;;;21.70;46.90;;;19.27;54.96;96783.13;4973511;28;20038;-66
2021/06/13 06:41:38;;;;;;;5.93;2.60;;;21.70;46.40;;;19.37;54.11;96788.72;4989356;28;20042;-66
2021/06/13 06:44:08;;;;;;;6.60;2.47;;;21.70;46.20;;;19.48;53.52;96793.28;4973809;28;20065;-66
2021/06/13 06:46:34;;;;;;;8.40;2.63;;;21.90;45.20;;;19.55;52.87;96788.69;4982077;28;20046;-66
2021/06/13 06:48:59;;;;;;;4.05;2.40;;;21.90;46.00;;;19.66;53.42;96788.91;4944509;28;20473;-66
2021/06/13 06:51:26;;;;;;;7.30;3.17;;;22.20;46.20;;;19.80;53.32;96790.34;4968624;28;20077;-65
2021/06/13 06:53:57;;;;;;;7.53;3.45;;;22.30;46.30;;;19.95;51.89;96793.41;4970516;28;20121;-66
2021/06/13 06:56:23;;;;;;;8.15;4.03;;;22.50;45.70;;;20.15;52.30;96799.22;4978717;28;20127;-65
2021/06/13 06:58:49;;;;;;;5.85;3.03;;;22.80;45.10;;;20.33;51.85;96805.47;4974547;28;20046;-66
2021/06/13 07:01:15;;;;;;;7.13;2.78;;;22.90;44.90;;;20.46;51.31;96807.94;4962888;28;20038;-65
2021/06/13 07:03:40;;;;;;;7.45;3.10;;;23.10;44.20;;;20.61;51.79;96808.28;4989208;28;20026;-66
2021/06/13 07:06:06;;;;;;;6.97;2.75;;;23.10;43.10;;;20.71;51.53;96807.66;4973734;28;20046;-66
2021/06/13 07:08:32;;;;;;;11.43;2.90;;;23.40;44.10;;;20.82;50.78;96809.53;4953682;28;20066;-66
2021/06/13 07:10:57;;;;;;;5.47;2.70;;;23.50;43.40;;;20.95;50.77;96808.41;4956103;28;20152;-66
2021/06/13 07:13:23;;;;;;;7.45;2.80;;;23.80;42.70;;;21.01;50.22;96813.63;4970350;28;20042;-66
2021/06/13 07:15:49;;;;;;;8.57;2.40;;;23.80;42.50;;;21.13;50.72;96816.28;4954873;28;20054;-67
2021/06/13 07:18:15;;;;;;;6.00;2.67;;;24.10;42.60;;;21.25;50.19;96809.03;4973411;28;20081;-66
2021/06/13 07:20:41;;;;;;;5.28;2.70;;;24.20;42.00;;;21.34;50.02;96802.25;4956823;28;20038;-66
2021/06/13 07:23:07;;;;;;;5.90;2.78;;;24.30;42.40;;;21.45;49.84;96807.78;5001272;28;20065;-66
2021/06/13 07:25:33;;;;;;;6.53;2.75;;;24.40;42.20;;;21.56;49.64;96812.28;5016327;28;20022;-66
2021/06/13 07:27:58;;;;;;;7.00;2.92;;;24.60;41.50;;;21.68;49.50;96813.81;4969716;28;20058;-67
2021/06/13 07:30:24;;;;;;;6.43;3.90;;;24.80;41.20;;;21.83;48.81;96820.50;4963480;28;20081;-72
2021/06/13 07:32:50;;;;;;;10.52;3.10;;;25.00;41.00;;;21.97;48.89;96822.63;4991512;28;20504;-71
2021/06/13 07:35:18;;;;;;;6.63;3.15;;;25.30;39.40;;;22.11;48.88;96816.97;4998118;28;20058;-67
2021/06/13 07:37:44;;;;;;;6.15;3.08;;;25.50;39.60;;;22.24;48.18;96816.66;4956037;28;20107;-68
2021/06/13 07:40:10;;;;;;;4.78;2.67;;;25.50;39.60;;;22.42;48.75;96819.06;4972189;28;20030;-70
2021/06/13 07:42:36;;;;;;;4.50;3.13;;;26.00;39.90;;;22.59;47.33;96825.19;4959983;28;20030;-71
2021/06/13 07:45:04;;;;;;;6.85;3.20;;;25.80;37.90;;;22.67;46.49;96836.56;4988563;28;20173;-71
2021/06/13 07:47:30;;;;;;;6.25;2.70;;;25.80;37.90;;;22.84;47.06;96832.78;4952958;28;20026;-69
2021/06/13 07:49:57;;;;;;;4.30;2.83;;;26.50;37.30;;;23.10;47.10;96836.63;4962020;28;20522;-69
2021/06/13 07:52:22;;;;;;;8.50;2.80;;;26.80;37.60;;;23.26;46.98;96828.72;4971830;28;20034;-69
2021/06/13 07:54:48;;;;;;;5.55;2.42;;;26.70;37.00;;;23.35;46.37;96830.72;4971964;28;20061;-68
2021/06/13 07:57:14;;;;;;;8.20;2.42;;;26.80;36.80;;;23.49;46.10;96831.94;4955097;28;20039;-71
2021/06/13 07:59:39;;;;;;;7.68;4.53;;;26.80;36.80;;;23.68;45.83;96820.88;4988147;28;20529;-69
2021/06/13 08:02:05;;;;;;;8.52;3.60;;;27.30;36.20;;;23.90;45.77;96823.50;4982988;28;20041;-68
2021/06/13 08:04:36;;;;;;;5.97;3.53;;;27.60;36.00;;;23.97;44.76;96824.88;4970563;28;20035;-68
2021/06/13 08:07:03;;;;;;;4.80;2.70;;;26.70;37.50;;;23.94;44.83;96824.59;4988224;28;20148;-72
2021/06/13 08:09:28;;;;;;;4.57;2.33;;;26.60;36.60;;;24.03;44.65;96812.31;4971305;28;20045;-71
2021/06/13 08:11:54;;;;;;;4.72;2.50;;;27.10;36.70;;;24.19;44.71;96815.91;4949434;28;20046;-68
2021/06/13 08:14:20;;;;;;;7.28;3.88;;;27.00;36.60;;;24.15;44.47;96818.31;4974496;28;20117;-71
2021/06/13 08:16:46;;;;;;;5.85;3.00;;;26.70;36.80;;;24.12;43.66;96816.16;4981919;28;20075;-69
2021/06/13 08:19:11;;;;;;;7.97;2.70;;;26.70;36.60;;;24.23;43.20;96817.84;4979930;28;20051;-69
2021/06/13 08:21:37;;;;;;;6.72;2.63;;;27.00;34.40;;;24.36;43.33;96822.00;4972056;28;20117;-67
2021/06/13 08:24:04;;;;;;;6.20;2.58;;;27.30;34.70;;;24.50;42.98;96816.97;5003402;28;20065;-68
2021/06/13 08:26:31;;;;;;;4.78;3.05;;;27.50;35.50;;;24.65;42.82;96814.38;4997596;28;20039;-68
2021/06/13 08:28:59;;;;;;;4.65;2.70;;;27.50;34.40;;;24.81;42.14;96817.94;4967900;28;20038;-69
2021/06/13 08:31:25;;;;;;;5.47;2.45;;;27.70;34.90;;;24.96;41.88;96810.75;4976232;28;20049;-69
2021/06/13 08:33:51;;;;;;;5.93;2.33;;;27.70;34.10;;;25.19;41.44;96814.13;4959121;28;20039;-71
2021/06/13 08:36:17;;;;;;;4.18;2.42;;;27.90;34.00;;;25.40;41.01;96798.81;4999977;28;20050;-69
2021/06/13 08:38:43;;;;;;;9.52;3.30;;;28.60;33.30;;;25.65;40.75;96796.16;4972221;28;20027;-68
2021/06/13 08:41:08;;;;;;;5.30;3.40;;;28.80;33.30;;;25.91;40.84;96805.91;4993083;28;20520;-68
2021/06/13 08:43:34;;;;;;;7.07;2.80;;;29.10;32.40;;;26.08;40.27;96802.94;5000892;28;20171;-68
2021/06/13 08:46:00;;;;;;;6.40;2.70;;;29.00;32.70;;;26.12;39.54;96809.41;4967855;28;20458;-71
2021/06/13 08:48:30;;;;;;;6.10;2.70;;;28.80;32.60;;;26.24;37.47;96809.94;4991955;28;20038;-68
2021/06/13 08:50:58;;;;;;;5.55;2.78;;;29.00;31.80;;;26.31;38.14;96811.56;4985031;28;20057;-68
2021/06/13 08:53:24;;;;;;;5.00;2.58;;;28.70;31.30;;;26.38;38.68;96815.63;4956836;28;20530;-67
2021/06/13 08:55:50;;;;;;;7.93;2.97;;;28.90;32.50;;;26.46;38.24;96814.25;4976418;28;20574;-70
2021/06/13 08:58:17;;;;;;;6.30;2.42;;;29.00;32.40;;;26.36;38.48;96823.19;4975937;28;20110;-69
2021/06/13 09:00:43;;;;;;;4.35;2.35;;;28.50;32.50;;;26.34;38.45;96821.81;4989007;28;20035;-67
2021/06/13 09:03:09;;;;;;;5.72;2.80;;;28.80;33.80;;;26.45;38.32;96815.34;5006139;28;20034;-67
2021/06/13 09:05:35;;;;;;;8.15;4.30;;;29.00;32.60;;;26.61;38.31;96816.94;4974574;28;20034;-71
2021/06/13 09:08:11;;;;;;;7.25;2.92;;;29.60;31.70;;;26.71;36.26;96830.41;4990825;28;20038;-72
2021/06/13 09:10:40;;;;;;;5.72;3.10;;;29.10;31.90;;;26.70;37.38;96823.38;4974407;28;20110;-74
2021/06/13 09:13:17;;;;;;;7.85;3.05;;;29.00;31.50;;;26.70;36.68;96822.56;4941281;28;20482;-70
2021/06/13 09:15:48;;;;;;;4.85;1.92;;;29.10;31.70;;;26.69;35.68;96824.44;4991934;28;20041;-71
2021/06/13 09:18:46;;;;;;;3.80;1.90;;;28.90;31.20;;;26.57;35.95;96825.84;4974845;28;20038;-71
2021/06/13 09:21:34;;;;;;;4.75;1.90;;;29.00;31.90;;;26.67;37.16;96818.53;4942274;28;20039;-67
2021/06/13 09:24:00;;;;;;;4.97;2.03;;;29.00;31.70;;;26.61;36.89;96825.03;5009209;28;20092;-69
2021/06/13 09:26:27;;;;;;;5.95;1.92;;;28.80;31.80;;;26.67;36.93;96818.53;5019308;28;20134;-69
2021/06/13 09:28:53;;;;;;;4.15;2.50;;;28.90;31.40;;;26.90;36.96;96827.09;4973880;28;20073;-69
2021/06/13 09:31:21;;;;;;;4.53;2.10;;;29.60;30.40;;;27.01;35.74;96824.13;4991302;28;20435;-67
2021/06/13 09:33:49;;;;;;;5.03;2.00;;;29.60;30.60;;;27.11;36.49;96818.66;4985497;28;20033;-69
2021/06/13 09:36:20;;;;;;;6.32;1.98;;;29.70;31.20;;;27.33;35.15;96821.00;4972808;28;20129;-65
2021/06/13 09:38:47;;;;;;;4.70;2.15;;;30.10;30.10;;;27.43;35.75;96829.06;5005819;28;20026;-70
2021/06/13 09:41:17;;;;;;;8.95;1.75;;;29.60;29.60;;;27.51;34.82;96822.25;4955090;28;20110;-68
2021/06/13 09:43:51;;;;;;;3.67;1.77;;;30.00;29.90;;;27.56;33.71;96824.13;4979262;28;20097;-68
2021/06/13 09:46:21;;;;;;;5.55;1.90;;;29.60;29.80;;;27.73;33.66;96827.28;4959283;28;20030;-69
2021/06/13 09:48:49;;;;;;;6.45;2.67;;;30.40;28.90;;;27.82;34.24;96830.19;4958231;28;20035;-68
2021/06/13 09:51:18;;;;;;;5.10;2.40;;;30.10;30.40;;;27.98;34.95;96820.88;4957622;28;20517;-68
2021/06/13 09:54:04;;;;;;;5.32;2.40;;;30.60;30.00;;;28.13;33.41;96819.97;4989936;28;20367;-69
2021/06/13 09:56:40;;;;;;;5.38;2.30;;;30.60;29.80;;;28.21;33.33;96825.56;5006653;28;20030;-69
2021/06/13 09:59:17;;;;;;;5.43;2.30;;;30.80;28.80;;;28.41;31.81;96821.91;4976755;28;20098;-68
2021/06/13 10:01:48;;;;;;;5.72;2.55;;;31.40;26.60;;;28.77;32.54;96822.34;4956529;28;20058;-70
2021/06/13 10:04:20;;;;;;;4.20;2.05;;;32.10;27.30;;;29.10;32.26;96827.97;4955904;28;20405;-68
2021/06/13 10:06:52;;;;;;;4.32;2.17;;;32.10;26.40;;;29.38;31.37;96828.94;4996049;28;20031;-68
2021/06/13 10:09:20;;;;;;;5.80;1.98;;;32.50;26.20;;;29.70;33.03;96823.66;4989719;28;20471;-69
2021/06/13 10:11:47;;;;;;;4.90;1.80;;;32.70;26.90;;;30.11;31.70;96833.91;5000654;28;20114;-69
2021/06/13 10:14:16;;;;;;;3.95;1.92;;;33.00;25.90;;;30.45;30.85;96817.31;4989799;28;20038;-69
2021/06/13 10:16:47;;;;;;;2.35;1.10;;;33.00;24.40;;;30.66;30.83;96817.78;4957065;28;20037;-70
2021/06/13 10:19:27;;;;;;;3.40;1.60;;;33.50;24.70;;;30.94;28.32;96818.59;4982021;28;20043;-69
2021/06/13 10:21:58;;;;;;;3.05;1.67;;;33.90;23.50;;;31.22;28.48;96820.19;4959080;28;20528;-69